createdAt,value
2022-09-22T00:00:58.708Z,0
2022-09-22T00:01:59.017Z,0
2022-09-22T00:02:58.935Z,0
2022-09-22T00:03:59.845Z,0
2022-09-22T00:04:59.433Z,0
2022-09-22T00:06:00.363Z,0
2022-09-22T00:07:00.691Z,0
2022-09-22T00:08:01.325Z,0
2022-09-22T00:09:02.831Z,0
2022-09-22T00:10:03.455Z,0
2022-09-22T00:11:03.659Z,0
2022-09-22T00:12:03.843Z,0
2022-09-22T00:13:04.747Z,0
2022-09-22T00:14:05.655Z,0
2022-09-22T00:15:05.544Z,0
2022-09-22T00:16:06.875Z,0
2022-09-22T00:17:06.774Z,0
2022-09-22T00:18:07.378Z,0
2022-09-22T00:19:08.267Z,0
2022-09-22T00:20:08.667Z,0
2022-09-22T00:21:08.995Z,0
2022-09-22T00:22:09.900Z,0
2022-09-22T00:23:10.801Z,0
2022-09-22T00:24:11.439Z,0
2022-09-22T00:25:12.104Z,0
2022-09-22T00:26:13.306Z,0
2022-09-22T00:27:13.217Z,0
2022-09-22T00:28:14.123Z,0
2022-09-22T00:29:15.052Z,0
2022-09-22T00:30:15.762Z,0
2022-09-22T00:31:17.230Z,0
2022-09-22T00:32:23.209Z,0
2022-09-22T00:33:17.825Z,0
2022-09-22T00:34:19.021Z,0
2022-09-22T00:35:18.342Z,0
2022-09-22T00:36:19.224Z,0
2022-09-22T00:37:19.827Z,0
2022-09-22T00:38:20.180Z,0
2022-09-22T00:39:20.782Z,0
2022-09-22T00:40:22.222Z,0
2022-09-22T00:41:21.860Z,0
2022-09-22T00:42:22.771Z,0
2022-09-22T00:43:23.673Z,0
2022-09-22T00:44:24.159Z,0
2022-09-22T00:45:23.866Z,0
2022-09-22T00:46:24.396Z,0
2022-09-22T00:47:25.293Z,0
2022-09-22T00:48:26.200Z,0
2022-09-22T00:49:26.807Z,0
2022-09-22T00:50:27.582Z,0
2022-09-22T00:51:27.917Z,0
2022-09-22T00:52:29.107Z,0
2022-09-22T00:53:29.724Z,0
2022-09-22T00:54:30.335Z,0
2022-09-22T00:55:31.284Z,0
2022-09-22T00:56:31.472Z,0
2022-09-22T00:57:30.849Z,0
2022-09-22T00:58:31.460Z,0
2022-09-22T00:59:32.339Z,0
2022-09-22T01:00:33.681Z,0
2022-09-22T01:01:35.380Z,0
2022-09-22T01:02:34.485Z,0
2022-09-22T01:03:41.211Z,0
2022-09-22T01:04:35.823Z,0
2022-09-22T01:05:36.735Z,0
2022-09-22T01:06:37.367Z,0
2022-09-22T01:07:38.249Z,0
2022-09-22T01:08:38.896Z,0
2022-09-22T01:09:40.209Z,0
2022-09-22T01:10:40.654Z,0
2022-09-22T01:11:41.256Z,0
2022-09-22T01:12:42.156Z,0
2022-09-22T01:13:42.479Z,0
2022-09-22T01:14:42.787Z,0
2022-09-22T01:15:44.098Z,0
2022-09-22T01:16:45.174Z,0
2022-09-22T01:17:45.510Z,0
2022-09-22T01:18:46.995Z,0
2022-09-22T01:19:46.887Z,0
2022-09-22T01:20:47.286Z,0
2022-09-22T01:21:48.467Z,0
2022-09-22T01:22:48.365Z,0
2022-09-22T01:23:49.287Z,0
2022-09-22T01:24:49.876Z,0
2022-09-22T01:25:50.813Z,0
2022-09-22T01:26:51.001Z,0
2022-09-22T01:27:51.477Z,0
2022-09-22T01:28:51.382Z,0
2022-09-22T01:29:51.991Z,0
2022-09-22T01:30:52.435Z,0
2022-09-22T01:31:53.775Z,0
2022-09-22T01:32:53.680Z,0
2022-09-22T01:33:53.992Z,0
2022-09-22T01:34:54.318Z,0
2022-09-22T01:35:55.226Z,0
2022-09-22T01:36:55.108Z,0
2022-09-22T01:37:55.717Z,0
2022-09-22T01:38:56.685Z,0
2022-09-22T01:39:57.324Z,0
2022-09-22T01:40:58.848Z,0
2022-09-22T01:41:59.341Z,0
2022-09-22T01:42:59.246Z,0
2022-09-22T01:44:00.441Z,0
2022-09-22T01:44:59.752Z,0
2022-09-22T01:46:01.078Z,0
2022-09-22T01:47:00.636Z,0
2022-09-22T01:48:01.845Z,0
2022-09-22T01:49:01.460Z,0
2022-09-22T01:50:01.770Z,0
2022-09-22T01:51:02.742Z,0
2022-09-22T01:52:03.387Z,0
2022-09-22T01:53:04.300Z,0
2022-09-22T01:54:05.055Z,0
2022-09-22T01:55:05.703Z,0
2022-09-22T01:56:06.366Z,0
2022-09-22T01:57:06.965Z,0
2022-09-22T01:58:08.444Z,0
2022-09-22T01:59:08.166Z,0
2022-09-22T02:00:09.059Z,0
2022-09-22T02:01:14.375Z,0
2022-09-22T02:02:11.372Z,0
2022-09-22T02:03:11.175Z,0
2022-09-22T02:04:11.802Z,0
2022-09-22T02:05:12.704Z,0
2022-09-22T02:06:13.901Z,0
2022-09-22T02:07:14.083Z,0
2022-09-22T02:08:13.999Z,0
2022-09-22T02:09:14.621Z,0
2022-09-22T02:10:15.240Z,0
2022-09-22T02:11:16.254Z,0
2022-09-22T02:12:17.156Z,0
2022-09-22T02:13:17.757Z,0
2022-09-22T02:14:18.776Z,0
2022-09-22T02:15:19.686Z,0
2022-09-22T02:16:19.696Z,0
2022-09-22T02:17:20.657Z,0
2022-09-22T02:18:21.558Z,0
2022-09-22T02:19:29.464Z,0
2022-09-22T02:20:22.649Z,0
2022-09-22T02:21:23.382Z,0
2022-09-22T02:22:23.586Z,0
2022-09-22T02:23:23.910Z,0
2022-09-22T02:24:24.829Z,0
2022-09-22T02:25:25.039Z,0
2022-09-22T02:26:25.294Z,0
2022-09-22T02:27:25.495Z,0
2022-09-22T02:28:26.102Z,0
2022-09-22T02:29:26.729Z,0
2022-09-22T02:30:27.941Z,0
2022-09-22T02:31:37.973Z,0
2022-09-22T02:32:38.899Z,0
2022-09-22T02:33:43.665Z,0
2022-09-22T02:34:39.277Z,0
2022-09-22T02:35:39.857Z,0
2022-09-22T02:36:41.050Z,0
2022-09-22T02:37:41.652Z,0
2022-09-22T02:38:42.235Z,0
2022-09-22T02:39:43.452Z,0
2022-09-22T02:40:44.649Z,0
2022-09-22T02:41:45.389Z,0
2022-09-22T02:42:44.998Z,0
2022-09-22T02:43:45.878Z,0
2022-09-22T02:44:46.458Z,0
2022-09-22T02:45:46.792Z,0
2022-09-22T02:46:48.625Z,0
2022-09-22T02:47:47.958Z,0
2022-09-22T02:48:49.144Z,0
2022-09-22T02:49:49.754Z,0
2022-09-22T02:50:49.784Z,0
2022-09-22T02:51:51.509Z,0
2022-09-22T02:52:51.539Z,0
2022-09-22T02:53:52.724Z,0
2022-09-22T02:54:52.623Z,0
2022-09-22T02:55:53.522Z,0
2022-09-22T02:56:55.041Z,0
2022-09-22T02:57:55.237Z,0
2022-09-22T02:58:58.265Z,0
2022-09-22T02:59:55.619Z,0
2022-09-22T03:00:56.224Z,0
2022-09-22T03:01:57.781Z,0
2022-09-22T03:02:57.394Z,0
2022-09-22T03:03:57.705Z,0
2022-09-22T03:04:58.940Z,0
2022-09-22T03:05:59.569Z,0
2022-09-22T03:07:00.759Z,0
2022-09-22T03:08:01.963Z,0
2022-09-22T03:09:01.874Z,0
2022-09-22T03:10:02.529Z,0
2022-09-22T03:11:03.132Z,0
2022-09-22T03:12:04.451Z,0
2022-09-22T03:13:31.727Z,0
2022-09-22T03:14:05.361Z,0
2022-09-22T03:15:06.584Z,0
2022-09-22T03:16:07.716Z,0
2022-09-22T03:17:07.931Z,0
2022-09-22T03:18:07.540Z,0
2022-09-22T03:19:08.171Z,0
2022-09-22T03:20:08.508Z,0
2022-09-22T03:21:09.389Z,0
2022-09-22T03:22:10.087Z,0
2022-09-22T03:23:10.688Z,0
2022-09-22T03:24:11.290Z,0
2022-09-22T03:25:12.207Z,0
2022-09-22T03:26:13.169Z,0
2022-09-22T03:27:13.413Z,0
2022-09-22T03:28:13.025Z,0
2022-09-22T03:29:14.218Z,0
2022-09-22T03:30:14.124Z,0
2022-09-22T03:31:15.128Z,0
2022-09-22T03:32:15.177Z,0
2022-09-22T03:33:15.783Z,0
2022-09-22T03:34:16.667Z,0
2022-09-22T03:35:17.883Z,0
2022-09-22T03:36:18.067Z,0
2022-09-22T03:37:18.624Z,0
2022-09-22T03:38:17.651Z,0
2022-09-22T03:39:19.563Z,0
2022-09-22T03:40:19.925Z,0
2022-09-22T03:41:19.827Z,0
2022-09-22T03:42:20.275Z,0
2022-09-22T03:43:27.519Z,0
2022-09-22T03:44:21.433Z,0
2022-09-22T03:45:22.333Z,0
2022-09-22T03:46:22.487Z,0
2022-09-22T03:47:22.524Z,0
2022-09-22T03:48:23.701Z,0
2022-09-22T03:49:24.306Z,0
2022-09-22T03:50:25.213Z,0
2022-09-22T03:51:25.527Z,0
2022-09-22T03:52:26.826Z,0
2022-09-22T03:53:27.310Z,0
2022-09-22T03:54:26.921Z,0
2022-09-22T03:55:28.108Z,0
2022-09-22T03:56:28.016Z,0
2022-09-22T03:57:28.664Z,0
2022-09-22T03:58:29.849Z,0
2022-09-22T03:59:31.055Z,0
2022-09-22T04:00:31.233Z,0
2022-09-22T04:01:32.213Z,0
2022-09-22T04:02:33.099Z,0
2022-09-22T04:03:33.311Z,0
2022-09-22T04:04:33.931Z,0
2022-09-22T04:05:34.840Z,0
2022-09-22T04:06:35.150Z,0
2022-09-22T04:07:35.766Z,0
2022-09-22T04:08:36.670Z,0
2022-09-22T04:09:36.280Z,0
2022-09-22T04:10:37.200Z,0
2022-09-22T04:11:37.085Z,0
2022-09-22T04:12:37.543Z,0
2022-09-22T04:13:42.794Z,0
2022-09-22T04:14:39.146Z,0
2022-09-22T04:15:38.464Z,0
2022-09-22T04:16:40.741Z,0
2022-09-22T04:17:40.666Z,0
2022-09-22T04:18:41.869Z,0
2022-09-22T04:19:41.505Z,0
2022-09-22T04:20:42.115Z,0
2022-09-22T04:21:42.149Z,0
2022-09-22T04:22:43.159Z,0
2022-09-22T04:23:43.359Z,0
2022-09-22T04:24:43.565Z,0
2022-09-22T04:25:44.062Z,0
2022-09-22T04:26:56.538Z,0
2022-09-22T04:27:44.404Z,0
2022-09-22T04:28:44.281Z,0
2022-09-22T04:29:44.890Z,0
2022-09-22T04:30:46.245Z,0
2022-09-22T04:31:46.170Z,0
2022-09-22T04:32:46.855Z,0
2022-09-22T04:33:47.180Z,0
2022-09-22T04:34:48.376Z,0
2022-09-22T04:35:47.984Z,0
2022-09-22T04:36:49.166Z,0
2022-09-22T04:37:49.058Z,0
2022-09-22T04:38:50.254Z,0
2022-09-22T04:39:50.307Z,0
2022-09-22T04:40:52.129Z,0
2022-09-22T04:41:52.036Z,0
2022-09-22T04:42:52.791Z,0
2022-09-22T04:43:55.302Z,0
2022-09-22T04:44:54.172Z,0
2022-09-22T04:45:56.649Z,0
2022-09-22T04:46:55.543Z,0
2022-09-22T04:47:56.849Z,0
2022-09-22T04:48:58.053Z,0
2022-09-22T04:49:57.678Z,0
2022-09-22T04:51:04.402Z,0
2022-09-22T04:51:58.992Z,0
2022-09-22T04:53:00.266Z,0
2022-09-22T04:54:00.884Z,0
2022-09-22T04:55:01.806Z,0
2022-09-22T04:56:02.717Z,0
2022-09-22T04:57:02.901Z,0
2022-09-22T04:58:03.860Z,0
2022-09-22T04:59:04.042Z,0
2022-09-22T05:00:04.652Z,0
2022-09-22T05:01:05.504Z,0
2022-09-22T05:02:05.817Z,0
2022-09-22T05:03:05.885Z,0
2022-09-22T05:04:05.235Z,0
2022-09-22T05:05:06.572Z,0
2022-09-22T05:06:07.512Z,0
2022-09-22T05:07:07.687Z,0
2022-09-22T05:08:07.581Z,0
2022-09-22T05:09:08.538Z,0
2022-09-22T05:10:09.466Z,0
2022-09-22T05:11:09.383Z,0
2022-09-22T05:12:09.985Z,0
2022-09-22T05:13:11.323Z,0
2022-09-22T05:14:11.526Z,0
2022-09-22T05:15:11.135Z,0
2022-09-22T05:16:12.665Z,0
2022-09-22T05:17:12.898Z,0
2022-09-22T05:18:12.934Z,0
2022-09-22T05:19:14.417Z,0
2022-09-22T05:20:14.021Z,5.63
2022-09-22T05:21:14.929Z,5.63
2022-09-22T05:22:16.412Z,5.63
2022-09-22T05:23:17.118Z,5.63
2022-09-22T05:24:17.540Z,5.63
2022-09-22T05:25:17.725Z,5.63
2022-09-22T05:26:18.646Z,5.63
2022-09-22T05:27:19.555Z,5.63
2022-09-22T05:28:19.782Z,5.63
2022-09-22T05:29:22.574Z,5.63
2022-09-22T05:30:20.487Z,5.63
2022-09-22T05:31:21.523Z,5.63
2022-09-22T05:32:22.492Z,5.63
2022-09-22T05:33:23.774Z,11.25
2022-09-22T05:34:23.963Z,11.25
2022-09-22T05:35:23.866Z,11.25
2022-09-22T05:36:24.198Z,11.25
2022-09-22T05:37:25.124Z,11.25
2022-09-22T05:38:26.334Z,11.25
2022-09-22T05:39:26.267Z,11.25
2022-09-22T05:40:27.583Z,16.88
2022-09-22T05:41:27.779Z,16.88
2022-09-22T05:42:28.113Z,16.88
2022-09-22T05:43:28.885Z,16.88
2022-09-22T05:44:28.775Z,16.88
2022-09-22T05:45:29.681Z,16.88
2022-09-22T05:46:30.264Z,16.88
2022-09-22T05:47:30.888Z,16.88
2022-09-22T05:48:36.448Z,16.88
2022-09-22T05:49:32.641Z,16.88
2022-09-22T05:50:32.268Z,22.5
2022-09-22T05:51:33.148Z,22.5
2022-09-22T05:52:34.634Z,39.38
2022-09-22T05:53:35.083Z,45
2022-09-22T05:54:39.637Z,95.63
2022-09-22T05:55:36.548Z,135
2022-09-22T05:56:37.526Z,106.88
2022-09-22T05:57:38.438Z,50.63
2022-09-22T05:58:39.696Z,61.88
2022-09-22T05:59:40.178Z,101.25
2022-09-22T06:00:40.197Z,67.5
2022-09-22T06:01:41.608Z,84.38
2022-09-22T06:02:42.538Z,135
2022-09-22T06:03:41.409Z,157.5
2022-09-22T06:04:42.596Z,112.5
2022-09-22T06:05:44.879Z,112.5
2022-09-22T06:06:43.066Z,151.88
2022-09-22T06:07:42.378Z,180
2022-09-22T06:08:48.534Z,225
2022-09-22T06:09:45.199Z,348.75
2022-09-22T06:10:44.791Z,315
2022-09-22T06:11:46.308Z,438.75
2022-09-22T06:12:46.205Z,573.75
2022-09-22T06:13:47.823Z,652.5
2022-09-22T06:14:48.013Z,601.88
2022-09-22T06:15:48.650Z,466.88
2022-09-22T06:16:49.550Z,219.38
2022-09-22T06:17:49.455Z,106.88
2022-09-22T06:18:50.382Z,157.5
2022-09-22T06:19:51.305Z,225
2022-09-22T06:20:51.494Z,140.63
2022-09-22T06:21:51.830Z,90
2022-09-22T06:22:53.337Z,50.63
2022-09-22T06:23:59.510Z,50.63
2022-09-22T06:24:53.424Z,56.25
2022-09-22T06:25:54.615Z,61.88
2022-09-22T06:26:55.535Z,67.5
2022-09-22T06:27:56.176Z,78.75
2022-09-22T06:28:57.143Z,112.5
2022-09-22T06:29:57.328Z,95.63
2022-09-22T06:30:57.528Z,45
2022-09-22T06:31:58.470Z,56.25
2022-09-22T06:32:59.412Z,202.5
2022-09-22T06:33:59.959Z,393.75
2022-09-22T06:35:00.730Z,573.75
2022-09-22T06:36:01.672Z,1108.13
2022-09-22T06:37:01.863Z,1513.13
2022-09-22T06:38:01.173Z,1456.88
2022-09-22T06:39:01.814Z,945
2022-09-22T06:40:03.344Z,793.13
2022-09-22T06:41:03.306Z,939.38
2022-09-22T06:42:03.233Z,461.25
2022-09-22T06:43:03.867Z,78.75
2022-09-22T06:44:04.922Z,292.5
2022-09-22T06:45:05.131Z,405
2022-09-22T06:46:06.110Z,123.75
2022-09-22T06:47:06.051Z,90
2022-09-22T06:48:10.280Z,61.88
2022-09-22T06:49:06.647Z,56.25
2022-09-22T06:50:07.285Z,61.88
2022-09-22T06:51:09.228Z,123.75
2022-09-22T06:52:08.347Z,680.63
2022-09-22T06:53:08.988Z,928.13
2022-09-22T06:54:09.873Z,545.63
2022-09-22T06:55:10.414Z,337.5
2022-09-22T06:56:10.748Z,213.75
2022-09-22T06:57:10.404Z,84.38
2022-09-22T06:58:11.024Z,78.75
2022-09-22T06:59:26.902Z,84.38
2022-09-22T07:00:12.115Z,84.38
2022-09-22T07:01:20.522Z,151.88
2022-09-22T07:02:13.607Z,151.88
2022-09-22T07:03:14.150Z,78.75
2022-09-22T07:04:13.854Z,78.75
2022-09-22T07:05:15.049Z,135
2022-09-22T07:06:19.999Z,101.25
2022-09-22T07:07:16.383Z,101.25
2022-09-22T07:08:16.880Z,275.63
2022-09-22T07:09:17.640Z,348.75
2022-09-22T07:10:17.560Z,303.75
2022-09-22T07:11:17.478Z,326.25
2022-09-22T07:12:18.677Z,78.75
2022-09-22T07:13:19.603Z,78.75
2022-09-22T07:14:20.675Z,78.75
2022-09-22T07:15:21.217Z,135
2022-09-22T07:16:21.958Z,348.75
2022-09-22T07:17:22.466Z,315
2022-09-22T07:18:22.363Z,106.88
2022-09-22T07:19:23.579Z,78.75
2022-09-22T07:20:23.845Z,78.75
2022-09-22T07:21:24.568Z,78.75
2022-09-22T07:22:24.771Z,78.75
2022-09-22T07:23:24.384Z,73.13
2022-09-22T07:24:25.536Z,73.13
2022-09-22T07:25:26.492Z,73.13
2022-09-22T07:26:27.134Z,73.13
2022-09-22T07:27:27.765Z,73.13
2022-09-22T07:28:28.957Z,73.13
2022-09-22T07:29:28.567Z,78.75
2022-09-22T07:30:29.837Z,78.75
2022-09-22T07:31:34.019Z,73.13
2022-09-22T07:32:30.505Z,73.13
2022-09-22T07:33:30.695Z,84.38
2022-09-22T07:34:31.391Z,90
2022-09-22T07:35:32.282Z,95.63
2022-09-22T07:36:33.176Z,101.25
2022-09-22T07:37:34.101Z,208.13
2022-09-22T07:38:35.018Z,163.13
2022-09-22T07:39:35.716Z,78.75
2022-09-22T07:40:36.972Z,67.5
2022-09-22T07:41:36.657Z,67.5
2022-09-22T07:42:37.883Z,67.5
2022-09-22T07:43:37.777Z,67.5
2022-09-22T07:44:42.261Z,67.5
2022-09-22T07:45:39.253Z,67.5
2022-09-22T07:46:39.427Z,67.5
2022-09-22T07:47:39.105Z,61.88
2022-09-22T07:48:40.312Z,61.88
2022-09-22T07:49:40.900Z,61.88
2022-09-22T07:50:40.817Z,61.88
2022-09-22T07:51:41.058Z,61.88
2022-09-22T07:52:41.262Z,61.88
2022-09-22T07:53:40.867Z,61.88
2022-09-22T07:54:42.466Z,67.5
2022-09-22T07:55:42.946Z,61.88
2022-09-22T07:56:43.138Z,61.88
2022-09-22T07:57:43.046Z,61.88
2022-09-22T07:58:43.678Z,61.88
2022-09-22T07:59:44.876Z,61.88
2022-09-22T08:00:46.726Z,61.88
2022-09-22T08:01:45.749Z,61.88
2022-09-22T08:02:46.934Z,61.88
2022-09-22T08:03:47.133Z,61.88
2022-09-22T08:04:47.546Z,61.88
2022-09-22T08:05:48.761Z,61.88
2022-09-22T08:06:48.673Z,61.88
2022-09-22T08:07:48.568Z,61.88
2022-09-22T08:08:49.779Z,61.88
2022-09-22T08:09:49.987Z,61.88
2022-09-22T08:10:50.182Z,61.88
2022-09-22T08:11:50.405Z,61.88
2022-09-22T08:12:50.331Z,61.88
2022-09-22T08:13:50.919Z,61.88
2022-09-22T08:14:51.645Z,61.88
2022-09-22T08:15:52.969Z,61.88
2022-09-22T08:16:53.720Z,61.88
2022-09-22T08:17:53.780Z,61.88
2022-09-22T08:18:54.416Z,61.88
2022-09-22T08:19:55.322Z,61.88
2022-09-22T08:21:01.297Z,61.88
2022-09-22T08:22:05.242Z,61.88
2022-09-22T08:22:57.455Z,61.88
2022-09-22T08:23:57.636Z,61.88
2022-09-22T08:24:58.526Z,61.88
2022-09-22T08:25:58.732Z,61.88
2022-09-22T08:27:04.676Z,61.88
2022-09-22T08:27:59.916Z,61.88
2022-09-22T08:29:00.408Z,61.88
2022-09-22T08:30:00.031Z,61.88
2022-09-22T08:31:01.661Z,61.88
2022-09-22T08:32:02.322Z,61.88
2022-09-22T08:33:01.668Z,61.88
2022-09-22T08:34:02.627Z,61.88
2022-09-22T08:35:03.439Z,61.88
2022-09-22T08:36:03.036Z,56.25
2022-09-22T08:37:04.541Z,56.25
2022-09-22T08:38:07.116Z,56.25
2022-09-22T08:39:04.247Z,56.25
2022-09-22T08:40:04.932Z,56.25
2022-09-22T08:41:06.616Z,56.25
2022-09-22T08:42:06.568Z,56.25
2022-09-22T08:43:06.893Z,56.25
2022-09-22T08:44:08.106Z,56.25
2022-09-22T08:45:08.693Z,56.25
2022-09-22T08:46:09.581Z,56.25
2022-09-22T08:47:10.308Z,56.25
2022-09-22T08:48:10.260Z,56.25
2022-09-22T08:49:11.474Z,56.25
2022-09-22T08:50:11.119Z,56.25
2022-09-22T08:51:12.609Z,56.25
2022-09-22T08:52:12.800Z,56.25
2022-09-22T08:53:13.732Z,56.25
2022-09-22T08:54:19.967Z,56.25
2022-09-22T08:55:15.070Z,56.25
2022-09-22T08:56:15.995Z,56.25
2022-09-22T08:57:16.483Z,56.25
2022-09-22T08:58:16.440Z,56.25
2022-09-22T08:59:17.624Z,56.25
2022-09-22T09:00:18.354Z,56.25
2022-09-22T09:01:19.007Z,56.25
2022-09-22T09:02:19.535Z,56.25
2022-09-22T09:03:20.035Z,56.25
2022-09-22T09:04:19.977Z,56.25
2022-09-22T09:05:21.118Z,56.25
2022-09-22T09:06:22.072Z,56.25
2022-09-22T09:07:22.281Z,56.25
2022-09-22T09:08:22.497Z,56.25
2022-09-22T09:09:23.942Z,56.25
2022-09-22T09:10:23.590Z,56.25
2022-09-22T09:12:24.120Z,56.25
2022-09-22T09:13:25.323Z,56.25
2022-09-22T09:14:25.521Z,56.25
2022-09-22T09:15:26.521Z,56.25
2022-09-22T09:16:27.813Z,56.25
2022-09-22T09:17:27.991Z,56.25
2022-09-22T09:18:27.881Z,67.5
2022-09-22T09:19:28.516Z,84.38
2022-09-22T09:20:29.727Z,84.38
2022-09-22T09:21:29.936Z,67.5
2022-09-22T09:22:30.167Z,56.25
2022-09-22T09:25:28.159Z,56.25
2022-09-22T09:25:45.517Z,56.25
2022-09-22T09:26:45.941Z,56.25
2022-09-22T09:27:46.583Z,56.25
2022-09-22T09:28:47.845Z,56.25
2022-09-22T09:29:48.798Z,56.25
2022-09-22T09:30:49.266Z,56.25
2022-09-22T09:31:49.652Z,61.88
2022-09-22T09:32:50.169Z,56.25
2022-09-22T09:33:50.103Z,56.25
2022-09-22T09:34:55.689Z,61.88
2022-09-22T09:35:56.389Z,56.25
2022-09-22T09:36:52.962Z,61.88
2022-09-22T09:37:53.447Z,73.13
2022-09-22T09:38:53.944Z,67.5
2022-09-22T09:39:54.148Z,118.13
2022-09-22T09:40:54.453Z,146.25
2022-09-22T09:41:55.073Z,129.38
2022-09-22T09:42:56.303Z,135
2022-09-22T09:43:58.834Z,140.63
2022-09-22T09:44:57.023Z,95.63
2022-09-22T09:45:57.215Z,61.88
2022-09-22T09:46:57.966Z,84.38
2022-09-22T09:48:00.423Z,168.75
2022-09-22T09:48:58.071Z,129.38
2022-09-22T09:50:03.980Z,112.5
2022-09-22T09:50:59.022Z,106.88
2022-09-22T09:51:59.655Z,61.88
2022-09-22T09:53:00.277Z,61.88
2022-09-22T09:54:03.592Z,67.5
2022-09-22T09:55:01.932Z,67.5
2022-09-22T09:56:03.135Z,61.88
2022-09-22T09:57:03.840Z,84.38
2022-09-22T09:58:04.449Z,146.25
2022-09-22T09:59:05.608Z,326.25
2022-09-22T10:00:06.191Z,455.63
2022-09-22T10:01:06.096Z,472.5
2022-09-22T10:02:08.000Z,489.38
2022-09-22T10:03:08.199Z,506.25
2022-09-22T10:04:08.363Z,523.13
2022-09-22T10:05:08.265Z,545.63
2022-09-22T10:06:09.208Z,562.5
2022-09-22T10:07:12.774Z,607.5
2022-09-22T10:08:10.979Z,714.38
2022-09-22T10:09:11.349Z,826.88
2022-09-22T10:10:12.275Z,900
2022-09-22T10:11:13.268Z,928.13
2022-09-22T10:12:13.771Z,922.5
2022-09-22T10:13:14.711Z,900
2022-09-22T10:14:14.981Z,871.88
2022-09-22T10:15:15.486Z,871.88
2022-09-22T10:16:15.888Z,905.63
2022-09-22T10:17:16.107Z,894.38
2022-09-22T10:18:16.012Z,821.25
2022-09-22T10:19:17.218Z,725.63
2022-09-22T10:20:17.148Z,641.25
2022-09-22T10:21:18.763Z,613.13
2022-09-22T10:22:18.677Z,590.63
2022-09-22T10:23:19.414Z,568.13
2022-09-22T10:24:20.711Z,556.88
2022-09-22T10:25:20.111Z,556.88
2022-09-22T10:26:21.040Z,562.5
2022-09-22T10:27:23.908Z,562.5
2022-09-22T10:28:22.853Z,590.63
2022-09-22T10:29:24.067Z,680.63
2022-09-22T10:30:24.758Z,742.5
2022-09-22T10:31:24.698Z,759.38
2022-09-22T10:32:26.317Z,708.75
2022-09-22T10:33:26.226Z,596.25
2022-09-22T10:34:26.852Z,551.25
2022-09-22T10:35:27.510Z,540
2022-09-22T10:36:28.963Z,556.88
2022-09-22T10:37:29.040Z,579.38
2022-09-22T10:38:29.888Z,607.5
2022-09-22T10:39:30.119Z,680.63
2022-09-22T10:40:31.819Z,798.75
2022-09-22T10:41:32.101Z,838.13
2022-09-22T10:42:32.656Z,860.63
2022-09-22T10:43:32.315Z,798.75
2022-09-22T10:45:00.172Z,708.75
2022-09-22T10:45:34.077Z,708.75
2022-09-22T10:46:35.103Z,646.88
2022-09-22T10:47:38.726Z,568.13
2022-09-22T10:48:35.938Z,540
2022-09-22T10:49:35.866Z,568.13
2022-09-22T10:50:36.846Z,883.13
2022-09-22T10:51:37.777Z,877.5
2022-09-22T10:52:38.119Z,866.25
2022-09-22T10:53:38.502Z,888.75
2022-09-22T10:54:39.705Z,855
2022-09-22T10:55:40.642Z,849.38
2022-09-22T10:56:41.154Z,590.63
2022-09-22T10:57:40.303Z,343.13
2022-09-22T10:58:42.233Z,140.63
2022-09-22T10:59:43.494Z,157.5
2022-09-22T11:00:50.336Z,405
2022-09-22T11:01:44.828Z,472.5
2022-09-22T11:02:45.208Z,140.63
2022-09-22T11:03:45.395Z,101.25
2022-09-22T11:04:46.221Z,112.5
2022-09-22T11:05:46.427Z,157.5
2022-09-22T11:06:47.126Z,112.5
2022-09-22T11:07:48.214Z,151.88
2022-09-22T11:08:48.155Z,106.88
2022-09-22T11:09:49.568Z,90
2022-09-22T11:10:50.901Z,95.63
2022-09-22T11:11:53.606Z,84.38
2022-09-22T11:12:50.826Z,112.5
2022-09-22T11:13:51.331Z,151.88
2022-09-22T11:14:51.263Z,331.88
2022-09-22T11:15:51.897Z,298.13
2022-09-22T11:16:51.838Z,151.88
2022-09-22T11:17:56.800Z,146.25
2022-09-22T11:18:56.674Z,106.88
2022-09-22T11:19:54.596Z,106.88
2022-09-22T11:20:55.815Z,95.63
2022-09-22T11:21:56.034Z,90
2022-09-22T11:22:56.531Z,84.38
2022-09-22T11:23:56.174Z,84.38
2022-09-22T11:24:57.082Z,78.75
2022-09-22T11:25:57.719Z,95.63
2022-09-22T11:26:58.938Z,84.38
2022-09-22T11:27:58.929Z,90
2022-09-22T11:29:08.461Z,90
2022-09-22T11:30:00.748Z,84.38
2022-09-22T11:31:01.490Z,95.63
2022-09-22T11:32:02.022Z,106.88
2022-09-22T11:33:02.283Z,106.88
2022-09-22T11:34:02.468Z,151.88
2022-09-22T11:35:03.118Z,118.13
2022-09-22T11:36:04.316Z,90
2022-09-22T11:37:07.908Z,78.75
2022-09-22T11:38:04.333Z,90
2022-09-22T11:39:04.960Z,90
2022-09-22T11:40:06.195Z,112.5
2022-09-22T11:41:07.979Z,78.75
2022-09-22T11:42:07.897Z,73.13
2022-09-22T11:43:15.149Z,73.13
2022-09-22T11:44:15.133Z,73.13
2022-09-22T11:45:10.479Z,73.13
2022-09-22T11:46:11.531Z,73.13
2022-09-22T11:47:12.464Z,78.75
2022-09-22T11:48:12.534Z,106.88
2022-09-22T11:49:13.758Z,146.25
2022-09-22T11:50:14.682Z,146.25
2022-09-22T11:51:15.602Z,123.75
2022-09-22T11:52:20.242Z,146.25
2022-09-22T11:53:16.455Z,123.75
2022-09-22T11:54:17.045Z,140.63
2022-09-22T11:55:17.465Z,95.63
2022-09-22T11:56:17.131Z,78.75
2022-09-22T11:57:18.073Z,90
2022-09-22T11:58:19.081Z,101.25
2022-09-22T11:59:20.033Z,225
2022-09-22T12:00:20.715Z,399.38
2022-09-22T12:01:27.239Z,455.63
2022-09-22T12:02:22.614Z,455.63
2022-09-22T12:03:24.015Z,461.25
2022-09-22T12:04:23.255Z,461.25
2022-09-22T12:05:24.448Z,450
2022-09-22T12:06:24.685Z,455.63
2022-09-22T12:07:24.902Z,444.38
2022-09-22T12:08:25.942Z,433.13
2022-09-22T12:09:25.863Z,427.5
2022-09-22T12:10:26.786Z,421.88
2022-09-22T12:11:27.702Z,427.5
2022-09-22T12:12:28.696Z,421.88
2022-09-22T12:13:28.733Z,410.63
2022-09-22T12:14:29.925Z,416.25
2022-09-22T12:15:30.574Z,433.13
2022-09-22T12:16:31.794Z,466.88
2022-09-22T12:17:36.650Z,472.5
2022-09-22T12:18:33.155Z,478.13
2022-09-22T12:19:33.048Z,461.25
2022-09-22T12:20:33.700Z,438.75
2022-09-22T12:21:34.898Z,405
2022-09-22T12:22:36.107Z,388.13
2022-09-22T12:23:35.729Z,371.25
2022-09-22T12:24:36.671Z,360
2022-09-22T12:26:00.889Z,360
2022-09-22T12:26:38.236Z,354.38
2022-09-22T12:27:39.170Z,343.13
2022-09-22T12:28:39.335Z,343.13
2022-09-22T12:29:40.259Z,337.5
2022-09-22T12:30:40.644Z,337.5
2022-09-22T12:31:41.358Z,331.88
2022-09-22T12:32:42.289Z,320.63
2022-09-22T12:33:42.545Z,286.88
2022-09-22T12:34:43.033Z,247.5
2022-09-22T12:35:46.659Z,253.13
2022-09-22T12:36:44.156Z,286.88
2022-09-22T12:37:44.377Z,309.38
2022-09-22T12:38:44.997Z,326.25
2022-09-22T12:39:44.926Z,337.5
2022-09-22T12:40:45.458Z,348.75
2022-09-22T12:41:45.429Z,348.75
2022-09-22T12:42:46.376Z,343.13
2022-09-22T12:43:46.558Z,331.88
2022-09-22T12:44:47.773Z,315
2022-09-22T12:45:47.990Z,292.5
2022-09-22T12:46:48.255Z,326.25
2022-09-22T12:47:48.880Z,326.25
2022-09-22T12:48:50.531Z,315
2022-09-22T12:49:50.449Z,326.25
2022-09-22T12:50:51.365Z,315
2022-09-22T12:51:52.015Z,303.75
2022-09-22T12:52:53.328Z,292.5
2022-09-22T12:53:59.984Z,275.63
2022-09-22T12:54:54.635Z,230.63
2022-09-22T12:55:55.553Z,241.88
2022-09-22T12:56:55.821Z,270
2022-09-22T12:57:56.826Z,292.5
2022-09-22T12:58:57.326Z,286.88
2022-09-22T12:59:57.299Z,281.25
2022-09-22T13:00:58.401Z,275.63
2022-09-22T13:01:58.747Z,270
2022-09-22T13:02:58.396Z,264.38
2022-09-22T13:03:59.387Z,258.75
2022-09-22T13:04:59.623Z,258.75
2022-09-22T13:06:03.397Z,258.75
2022-09-22T13:07:01.318Z,258.75
2022-09-22T13:08:02.242Z,258.75
2022-09-22T13:09:03.261Z,253.13
2022-09-22T13:10:04.244Z,264.38
2022-09-22T13:11:04.174Z,253.13
2022-09-22T13:12:05.677Z,253.13
2022-09-22T13:13:05.330Z,247.5
2022-09-22T13:14:07.004Z,247.5
2022-09-22T13:15:06.994Z,247.5
2022-09-22T13:16:07.917Z,247.5
2022-09-22T13:17:08.155Z,247.5
2022-09-22T13:18:08.080Z,241.88
2022-09-22T13:19:09.266Z,241.88
2022-09-22T13:20:09.954Z,241.88
2022-09-22T13:21:09.906Z,241.88
2022-09-22T13:22:10.136Z,241.88
2022-09-22T13:23:10.018Z,241.88
2022-09-22T13:24:14.141Z,236.25
2022-09-22T13:25:11.569Z,236.25
2022-09-22T13:26:11.785Z,236.25
2022-09-22T13:27:11.979Z,241.88
2022-09-22T13:28:12.265Z,236.25
2022-09-22T13:29:13.020Z,236.25
2022-09-22T13:30:12.958Z,236.25
2022-09-22T13:31:17.466Z,241.88
2022-09-22T13:32:18.144Z,247.5
2022-09-22T13:33:15.224Z,247.5
2022-09-22T13:34:15.518Z,258.75
2022-09-22T13:35:16.002Z,253.13
2022-09-22T13:36:16.520Z,253.13
2022-09-22T13:37:16.717Z,247.5
2022-09-22T13:38:16.914Z,241.88
2022-09-22T13:39:16.977Z,241.88
2022-09-22T13:40:17.822Z,236.25
2022-09-22T13:41:18.457Z,236.25
2022-09-22T13:42:19.354Z,230.63